createdAt,value
2022-11-28T00:00:17.308Z,5.13
2022-11-28T00:01:41.564Z,5.14
2022-11-28T00:02:45.292Z,5.02
2022-11-28T00:03:50.682Z,5.08
2022-11-28T00:04:59.008Z,5.05
2022-11-28T00:06:08.033Z,5.08
2022-11-28T00:07:13.908Z,5.04
2022-11-28T00:08:26.242Z,5.02
2022-11-28T00:09:33.874Z,5.04
2022-11-28T00:10:46.154Z,5.05
2022-11-28T00:11:52.561Z,5.05
2022-11-28T00:12:59.667Z,5.07
2022-11-28T00:14:04.972Z,5.03
2022-11-28T00:15:12.610Z,5.06
2022-11-28T00:16:22.965Z,5.01
2022-11-28T00:17:28.794Z,5.01
2022-11-28T00:18:36.443Z,5.03
2022-11-28T00:19:44.169Z,5.01
2022-11-28T00:20:50.850Z,5.02
2022-11-28T00:22:02.458Z,5.04
2022-11-28T00:23:07.839Z,5.05
2022-11-28T00:24:14.482Z,5.07
2022-11-28T00:25:25.300Z,5.07
2022-11-28T00:26:41.658Z,5.04
2022-11-28T00:27:45.628Z,5.05
2022-11-28T00:28:51.417Z,5.07
2022-11-28T00:29:58.776Z,5.06
2022-11-28T00:31:08.255Z,5.08
2022-11-28T00:32:13.051Z,5.10
2022-11-28T00:33:19.447Z,5.10
2022-11-28T00:34:24.775Z,5.09
2022-11-28T00:35:35.842Z,5.11
2022-11-28T00:36:45.952Z,5.14
2022-11-28T00:37:51.545Z,5.13
2022-11-28T00:39:04.797Z,5.14
2022-11-28T00:40:13.896Z,5.16
2022-11-28T00:41:32.336Z,5.18
2022-11-28T00:42:47.192Z,5.17
2022-11-28T00:43:54.620Z,5.18
2022-11-28T00:45:00.693Z,5.17
2022-11-28T00:46:05.276Z,5.21
2022-11-28T00:47:09.805Z,5.18
2022-11-28T00:48:14.123Z,5.20
2022-11-28T00:49:21.728Z,5.21
2022-11-28T00:50:25.718Z,5.21
2022-11-28T00:51:34.204Z,5.21
2022-11-28T00:52:43.476Z,5.23
2022-11-28T00:53:59.789Z,5.23
2022-11-28T00:55:03.584Z,5.25
2022-11-28T00:56:21.407Z,5.25
2022-11-28T00:57:25.553Z,5.21
2022-11-28T00:58:35.329Z,5.22
2022-11-28T00:59:40.044Z,5.23
2022-11-28T01:00:49.007Z,5.21
2022-11-28T01:01:53.906Z,5.18
2022-11-28T01:03:00.176Z,5.19
2022-11-28T01:04:09.826Z,5.19
2022-11-28T01:05:13.451Z,5.21
2022-11-28T01:06:35.677Z,5.22
2022-11-28T01:07:42.961Z,5.22
2022-11-28T01:08:48.180Z,5.16
2022-11-28T01:09:52.350Z,5.16
2022-11-28T01:10:56.731Z,5.16
2022-11-28T01:12:03.523Z,5.16
2022-11-28T01:13:11.851Z,5.16
2022-11-28T01:14:26.830Z,5.15
2022-11-28T01:15:30.543Z,5.13
2022-11-28T01:16:36.038Z,5.16
2022-11-28T01:17:42.172Z,5.17
2022-11-28T01:18:50.389Z,5.18
2022-11-28T01:19:58.412Z,5.19
2022-11-28T01:21:07.839Z,5.18
2022-11-28T01:22:23.617Z,5.21
2022-11-28T01:23:28.361Z,5.19
2022-11-28T01:24:36.054Z,5.17
2022-11-28T01:25:40.472Z,5.17
2022-11-28T01:26:45.320Z,5.18
2022-11-28T01:27:49.566Z,5.19
2022-11-28T01:28:53.428Z,5.21
2022-11-28T01:29:56.965Z,5.21
2022-11-28T01:31:07.907Z,5.22
2022-11-28T01:32:11.634Z,5.22
2022-11-28T01:33:15.324Z,5.23
2022-11-28T01:34:21.578Z,5.24
2022-11-28T01:35:25.231Z,5.22
2022-11-28T01:36:29.253Z,5.20
2022-11-28T01:37:32.810Z,5.18
2022-11-28T01:38:36.437Z,5.19
2022-11-28T01:39:40.744Z,5.19
2022-11-28T01:40:47.220Z,5.20
2022-11-28T01:41:52.440Z,5.20
2022-11-28T01:42:59.846Z,5.20
2022-11-28T01:44:32.485Z,5.19
2022-11-28T01:45:42.138Z,5.15
2022-11-28T01:46:45.808Z,5.13
2022-11-28T01:47:56.246Z,5.10
2022-11-28T01:49:22.267Z,5.03
2022-11-28T01:50:30.489Z,5.08
2022-11-28T01:51:44.985Z,5.01
2022-11-28T01:53:02.344Z,5.04
2022-11-28T01:54:08.918Z,5.06
2022-11-28T01:55:21.341Z,5.08
2022-11-28T01:56:43.786Z,5.07
2022-11-28T01:57:54.357Z,5.08
2022-11-28T01:59:08.854Z,5.10
2022-11-28T02:00:18.153Z,5.09
2022-11-28T02:01:27.981Z,5.10
2022-11-28T02:02:51.903Z,5.08
2022-11-28T02:03:59.446Z,5.06
2022-11-28T02:05:05.157Z,5.04
2022-11-28T02:06:12.967Z,5.03
2022-11-28T02:07:22.349Z,5.01
2022-11-28T02:08:35.330Z,5.03
2022-11-28T02:09:39.936Z,4.99
2022-11-28T02:11:15.331Z,4.95
2022-11-28T02:13:08.549Z,4.93
2022-11-28T02:14:35.774Z,4.90
2022-11-28T02:16:29.373Z,4.87
2022-11-28T02:17:54.992Z,4.78
2022-11-28T02:19:34.898Z,4.79
2022-11-28T02:21:19.242Z,4.82
2022-11-28T02:23:13.203Z,4.81
2022-11-28T02:24:30.081Z,4.79
2022-11-28T02:26:08.521Z,4.70
2022-11-28T02:28:08.998Z,4.70
2022-11-28T02:29:53.169Z,4.67
2022-11-28T02:31:09.732Z,4.63
2022-11-28T02:32:37.120Z,4.58
2022-11-28T02:34:28.538Z,4.51
2022-11-28T02:35:47.475Z,4.50
2022-11-28T02:37:07.041Z,4.54
2022-11-28T02:39:10.356Z,4.58
2022-11-28T02:40:55.315Z,4.64
2022-11-28T02:42:28.922Z,4.66
2022-11-28T02:44:04.229Z,4.70
2022-11-28T02:45:20.117Z,4.73
2022-11-28T02:46:47.163Z,4.76
2022-11-28T02:48:06.208Z,4.77
2022-11-28T02:49:24.413Z,4.79
2022-11-28T02:50:54.565Z,4.79
2022-11-28T02:52:15.724Z,4.82
2022-11-28T02:53:28.757Z,4.84
2022-11-28T02:54:35.754Z,4.82
2022-11-28T02:55:45.791Z,4.79
2022-11-28T02:56:56.741Z,4.82
2022-11-28T02:58:22.364Z,4.81
2022-11-28T02:59:56.270Z,4.81
2022-11-28T03:01:02.384Z,4.84
2022-11-28T03:02:23.129Z,4.81
2022-11-28T03:03:45.381Z,4.81
2022-11-28T03:05:26.006Z,4.75
2022-11-28T03:07:13.559Z,4.78
2022-11-28T03:09:00.021Z,4.73
2022-11-28T03:10:23.968Z,4.75
2022-11-28T03:12:13.842Z,4.67
2022-11-28T03:13:53.680Z,4.65
2022-11-28T03:15:07.615Z,4.68
2022-11-28T03:16:24.751Z,4.67
2022-11-28T03:17:47.201Z,4.71
2022-11-28T03:19:17.131Z,4.65
2022-11-28T03:20:39.527Z,4.65
2022-11-28T03:24:12.044Z,4.64
2022-11-28T03:26:02.291Z,4.68
2022-11-28T03:27:35.213Z,4.72
2022-11-28T03:29:07.960Z,4.74
2022-11-28T03:30:30.040Z,4.76
2022-11-28T03:31:42.400Z,4.80
2022-11-28T03:32:56.538Z,4.80
2022-11-28T03:34:21.152Z,4.81
2022-11-28T03:35:37.612Z,4.81
2022-11-28T03:36:50.228Z,4.79
2022-11-28T03:38:30.229Z,4.81
2022-11-28T03:39:42.803Z,4.80
2022-11-28T03:41:08.143Z,4.72
2022-11-28T03:42:30.032Z,4.73
2022-11-28T03:43:49.268Z,4.73
2022-11-28T03:45:21.425Z,4.67
2022-11-28T03:46:36.027Z,4.72
2022-11-28T03:47:49.499Z,4.72
2022-11-28T03:49:00.767Z,4.71
2022-11-28T03:50:20.355Z,4.72
2022-11-28T03:51:44.222Z,4.68
2022-11-28T03:53:05.683Z,4.73
2022-11-28T03:54:22.175Z,4.70
2022-11-28T03:55:52.953Z,4.72
2022-11-28T03:57:08.558Z,4.72
2022-11-28T03:58:40.469Z,4.73
2022-11-28T03:59:56.074Z,4.72
2022-11-28T04:01:18.817Z,4.74
2022-11-28T04:02:56.827Z,4.71
2022-11-28T04:04:45.928Z,4.68
2022-11-28T04:06:07.585Z,4.66
2022-11-28T04:07:43.955Z,4.64
2022-11-28T04:09:14.053Z,4.58
2022-11-28T04:10:51.487Z,4.59
2022-11-28T04:12:04.873Z,4.56
2022-11-28T04:13:37.514Z,4.59
2022-11-28T04:15:00.253Z,4.59
2022-11-28T04:16:42.747Z,4.62
2022-11-28T04:18:20.357Z,4.62
2022-11-28T04:19:43.202Z,4.62
2022-11-28T04:21:20.071Z,4.62
2022-11-28T04:22:39.520Z,4.58
2022-11-28T04:23:51.748Z,4.56
2022-11-28T04:25:06.548Z,4.62
2022-11-28T04:26:27.297Z,4.61
2022-11-28T04:27:43.123Z,4.63
2022-11-28T04:28:54.515Z,4.66
2022-11-28T04:30:11.621Z,4.68
2022-11-28T04:31:25.825Z,4.68
2022-11-28T04:32:42.140Z,4.62
2022-11-28T04:33:58.218Z,4.65
2022-11-28T04:35:15.142Z,4.65
2022-11-28T04:36:25.148Z,4.70
2022-11-28T04:37:36.707Z,4.74
2022-11-28T04:38:56.896Z,4.77
2022-11-28T04:40:12.591Z,4.77
2022-11-28T04:41:29.209Z,4.76
2022-11-28T04:42:48.785Z,4.80
2022-11-28T04:44:41.340Z,4.81
2022-11-28T04:45:56.258Z,4.79
2022-11-28T04:47:02.651Z,4.78
2022-11-28T04:48:08.486Z,4.77
2022-11-28T04:49:14.295Z,4.79
2022-11-28T04:50:28.855Z,4.77
2022-11-28T04:52:03.824Z,4.78
2022-11-28T04:53:57.711Z,4.73
2022-11-28T04:55:17.318Z,4.70
2022-11-28T04:56:41.936Z,4.72
2022-11-28T04:58:16.923Z,4.74
2022-11-28T04:59:33.812Z,4.72
2022-11-28T05:00:41.995Z,4.75
2022-11-28T05:01:51.173Z,4.77
2022-11-28T05:02:58.012Z,4.74
2022-11-28T05:04:04.328Z,4.76
2022-11-28T05:05:32.897Z,4.75
2022-11-28T05:06:38.815Z,4.73
2022-11-28T05:07:48.960Z,4.71
2022-11-28T05:09:07.258Z,4.68
2022-11-28T05:10:18.111Z,4.73
2022-11-28T05:11:24.008Z,4.75
2022-11-28T05:12:31.558Z,4.76
2022-11-28T05:13:35.707Z,4.78
2022-11-28T05:14:51.645Z,4.77
2022-11-28T05:16:05.982Z,4.80
2022-11-28T05:17:14.839Z,4.80
2022-11-28T05:18:23.975Z,4.81
2022-11-28T05:19:30.056Z,4.81
2022-11-28T05:20:37.754Z,4.81
2022-11-28T05:21:45.237Z,4.84
2022-11-28T05:22:51.830Z,4.85
2022-11-28T05:24:02.869Z,4.86
2022-11-28T05:25:12.372Z,4.86
2022-11-28T05:26:22.204Z,4.84
2022-11-28T05:27:31.609Z,4.78
2022-11-28T05:28:38.066Z,4.78
2022-11-28T05:29:52.315Z,4.75
2022-11-28T05:31:02.412Z,4.75
2022-11-28T05:32:09.816Z,4.77
2022-11-28T05:33:15.351Z,4.78
2022-11-28T05:34:25.670Z,4.79
2022-11-28T05:35:32.325Z,4.78
2022-11-28T05:36:36.126Z,4.78
2022-11-28T05:37:47.019Z,4.78
2022-11-28T05:38:55.711Z,4.78
2022-11-28T05:40:04.204Z,4.80
2022-11-28T05:41:23.027Z,4.77
2022-11-28T05:42:52.687Z,4.76
2022-11-28T05:44:01.395Z,4.71
2022-11-28T05:45:15.905Z,4.74
2022-11-28T05:46:29.004Z,4.68
2022-11-28T05:47:41.418Z,4.74
2022-11-28T05:48:51.589Z,4.74
2022-11-28T05:50:00.889Z,4.76
2022-11-28T05:51:08.530Z,4.72
2022-11-28T05:52:17.124Z,4.72
2022-11-28T05:53:28.968Z,4.73
2022-11-28T05:54:36.555Z,4.74
2022-11-28T05:55:44.893Z,4.75
2022-11-28T05:56:52.397Z,4.75
2022-11-28T05:58:06.640Z,4.77
2022-11-28T05:59:16.660Z,4.79
2022-11-28T06:00:24.488Z,4.80
2022-11-28T06:01:33.321Z,4.81
2022-11-28T06:02:37.149Z,4.83
2022-11-28T06:03:41.792Z,4.83
2022-11-28T06:04:45.306Z,4.86
2022-11-28T06:05:49.027Z,4.87
2022-11-28T06:06:53.162Z,4.84
2022-11-28T06:07:57.297Z,4.85
2022-11-28T06:09:01.990Z,4.86
2022-11-28T06:10:07.347Z,4.83
2022-11-28T06:11:12.887Z,4.84
2022-11-28T06:12:17.996Z,4.85
2022-11-28T06:13:35.808Z,4.89
2022-11-28T06:14:48.007Z,4.89
2022-11-28T06:16:00.532Z,4.88
2022-11-28T06:17:04.928Z,4.89
2022-11-28T06:18:25.991Z,4.88
2022-11-28T06:19:38.828Z,4.86
2022-11-28T06:20:46.338Z,4.86
2022-11-28T06:21:51.018Z,4.91
2022-11-28T06:22:57.367Z,4.93
2022-11-28T06:24:03.443Z,4.95
2022-11-28T06:25:11.092Z,4.97
2022-11-28T06:26:26.377Z,4.97
2022-11-28T06:27:46.591Z,4.99
2022-11-28T06:28:51.210Z,4.99
2022-11-28T06:30:00.626Z,5.01
2022-11-28T06:31:22.739Z,5.01
2022-11-28T06:32:31.674Z,4.92
2022-11-28T06:33:40.050Z,4.93
2022-11-28T06:34:50.327Z,4.92
2022-11-28T06:36:05.649Z,4.94
2022-11-28T06:37:13.919Z,4.96
2022-11-28T06:38:22.677Z,4.89
2022-11-28T06:39:30.543Z,4.93
2022-11-28T06:41:08.291Z,4.93
2022-11-28T06:42:17.727Z,4.98
2022-11-28T06:43:46.869Z,4.99
2022-11-28T06:45:00.393Z,5.00
2022-11-28T06:46:05.887Z,5.03
2022-11-28T06:47:15.504Z,5.02
2022-11-28T06:48:33.382Z,5.00
2022-11-28T06:49:37.395Z,5.01
2022-11-28T06:50:58.933Z,4.98
2022-11-28T06:52:09.508Z,5.03
2022-11-28T06:53:28.658Z,5.03
2022-11-28T06:54:37.835Z,5.02
2022-11-28T06:55:49.717Z,5.02
2022-11-28T06:56:56.522Z,5.05
2022-11-28T06:58:19.228Z,5.04
2022-11-28T06:59:33.854Z,5.06
2022-11-28T07:00:43.993Z,5.09
2022-11-28T07:01:50.494Z,5.09
2022-11-28T07:03:00.128Z,5.13
2022-11-28T07:05:41.708Z,5.08
2022-11-28T07:06:48.194Z,5.11
2022-11-28T07:07:54.531Z,5.14
2022-11-28T07:09:04.455Z,5.15
2022-11-28T07:10:28.860Z,5.15
2022-11-28T07:11:44.485Z,5.15
2022-11-28T07:13:05.133Z,5.14
2022-11-28T07:14:18.196Z,5.17
2022-11-28T07:15:29.075Z,5.20
2022-11-28T07:16:38.596Z,5.22
2022-11-28T07:17:49.779Z,5.25
2022-11-28T07:19:02.299Z,5.24
2022-11-28T07:20:09.951Z,5.16
2022-11-28T07:21:15.025Z,5.20
2022-11-28T07:22:24.129Z,5.25
2022-11-28T07:23:28.859Z,5.24
2022-11-28T07:24:40.579Z,5.22
2022-11-28T07:26:04.476Z,5.24
2022-11-28T07:27:09.018Z,5.23
2022-11-28T07:28:21.903Z,5.24
2022-11-28T07:29:39.244Z,5.25
2022-11-28T07:31:18.921Z,5.29
2022-11-28T07:32:29.330Z,5.19
2022-11-28T07:33:55.100Z,5.22
2022-11-28T07:35:12.702Z,5.21
2022-11-28T07:37:53.609Z,5.09
2022-11-28T07:39:24.358Z,5.10
2022-11-28T07:40:33.746Z,5.12
2022-11-28T07:41:41.967Z,5.07
2022-11-28T07:42:52.708Z,5.07
2022-11-28T07:44:07.185Z,5.08
2022-11-28T07:45:14.267Z,5.04
2022-11-28T07:46:32.298Z,5.04
2022-11-28T07:47:44.077Z,5.05
2022-11-28T07:48:57.775Z,5.07
2022-11-28T07:50:05.979Z,5.06
2022-11-28T07:52:39.692Z,5.03
2022-11-28T07:53:50.618Z,5.04
2022-11-28T07:55:05.427Z,5.04
2022-11-28T07:56:17.322Z,5.05
2022-11-28T07:57:45.760Z,5.01
2022-11-28T07:58:52.453Z,5.00
2022-11-28T08:00:07.796Z,5.03
2022-11-28T08:01:31.329Z,5.00
2022-11-28T08:02:35.238Z,5.02
2022-11-28T08:03:39.287Z,5.07
2022-11-28T08:04:48.602Z,5.06
2022-11-28T08:06:03.055Z,5.06
2022-11-28T08:07:07.221Z,5.09
2022-11-28T08:08:10.901Z,5.14
2022-11-28T08:09:15.044Z,5.14
2022-11-28T08:10:20.287Z,5.17
2022-11-28T08:11:25.435Z,5.18
2022-11-28T08:12:31.728Z,5.18
2022-11-28T08:13:39.327Z,5.22
2022-11-28T08:14:54.717Z,5.26
2022-11-28T08:16:13.384Z,5.25
2022-11-28T08:17:19.993Z,5.18
2022-11-28T08:18:25.637Z,5.20
2022-11-28T08:19:35.045Z,5.20
2022-11-28T08:20:41.924Z,5.24
2022-11-28T08:21:47.920Z,5.19
2022-11-28T08:22:56.955Z,5.24
2022-11-28T08:24:23.634Z,5.20
2022-11-28T08:25:36.034Z,5.20
2022-11-28T08:26:44.287Z,5.23
2022-11-28T08:27:50.121Z,5.24
2022-11-28T08:28:59.079Z,5.23
2022-11-28T08:30:15.084Z,5.26
2022-11-28T08:31:43.591Z,5.27
2022-11-28T08:32:56.865Z,5.30
2022-11-28T08:34:10.996Z,5.34
2022-11-28T08:35:22.587Z,5.29
2022-11-28T08:36:32.334Z,5.30
2022-11-28T08:37:39.172Z,5.32
2022-11-28T08:39:03.491Z,5.34
2022-11-28T08:40:17.518Z,5.32
2022-11-28T08:41:27.068Z,5.32
2022-11-28T08:42:36.882Z,5.31
2022-11-28T08:43:49.210Z,5.28
2022-11-28T08:45:00.336Z,5.29
2022-11-28T08:46:37.192Z,5.26
2022-11-28T08:47:44.599Z,5.23
2022-11-28T08:48:53.089Z,5.20
2022-11-28T08:50:01.337Z,5.17
2022-11-28T08:51:23.182Z,5.21
2022-11-28T08:52:37.569Z,5.22
2022-11-28T08:53:49.330Z,5.23
2022-11-28T08:54:58.236Z,5.23
2022-11-28T08:56:04.275Z,5.24
2022-11-28T08:57:09.776Z,5.26
2022-11-28T08:58:15.795Z,5.21
2022-11-28T08:59:25.021Z,5.20
2022-11-28T09:00:48.234Z,5.24
2022-11-28T09:01:57.886Z,5.23
2022-11-28T09:03:03.878Z,5.20
2022-11-28T09:04:16.439Z,5.22
2022-11-28T09:05:24.116Z,5.22
2022-11-28T09:06:28.907Z,5.29
2022-11-28T09:07:36.929Z,5.29
2022-11-28T09:08:43.908Z,5.28
2022-11-28T09:09:51.027Z,5.32
2022-11-28T09:10:58.151Z,5.35
2022-11-28T09:12:01.717Z,5.32
2022-11-28T09:13:11.937Z,5.39
2022-11-28T09:14:27.301Z,5.46
2022-11-28T09:15:38.115Z,5.50
2022-11-28T09:16:44.141Z,5.51
2022-11-28T09:17:53.704Z,5.50
2022-11-28T09:19:01.756Z,5.49
2022-11-28T09:20:07.094Z,5.53
2022-11-28T09:21:14.613Z,5.61
2022-11-28T09:23:53.326Z,5.74
2022-11-28T09:25:00.366Z,5.75
2022-11-28T09:26:21.271Z,5.81
2022-11-28T09:27:26.814Z,5.85
2022-11-28T09:28:41.831Z,5.87
2022-11-28T09:29:57.405Z,5.93
2022-11-28T09:31:07.043Z,5.89
2022-11-28T09:32:12.808Z,5.78
2022-11-28T09:33:20.528Z,5.79
2022-11-28T09:34:25.272Z,5.79
2022-11-28T09:35:41.278Z,5.84
2022-11-28T09:36:45.865Z,5.82
2022-11-28T09:37:54.158Z,5.86
2022-11-28T09:39:01.967Z,5.85
2022-11-28T09:40:22.185Z,5.88
2022-11-28T09:41:34.660Z,5.93
2022-11-28T09:42:47.062Z,5.96
2022-11-28T09:43:55.174Z,6.00
2022-11-28T09:45:24.828Z,5.98
2022-11-28T09:46:35.265Z,5.98
2022-11-28T09:47:48.798Z,6.02
2022-11-28T09:49:02.333Z,6.04
2022-11-28T09:50:28.129Z,5.98
2022-11-28T09:52:08.258Z,6.04
2022-11-28T09:53:26.440Z,6.09
2022-11-28T09:55:25.230Z,6.14
2022-11-28T09:56:29.899Z,6.10
2022-11-28T09:57:56.508Z,6.10
2022-11-28T09:59:19.866Z,6.15
2022-11-28T10:01:08.098Z,6.15
2022-11-28T10:02:41.837Z,6.17
2022-11-28T10:04:43.101Z,6.20
2022-11-28T10:06:24.316Z,6.25
2022-11-28T10:07:43.722Z,6.30
2022-11-28T10:09:25.772Z,6.36
2022-11-28T10:11:16.473Z,6.43
2022-11-28T10:13:07.061Z,6.51
2022-11-28T10:14:44.279Z,6.64
2022-11-28T10:16:09.293Z,6.70
2022-11-28T10:17:44.864Z,6.73
2022-11-28T10:19:52.844Z,6.81
2022-11-28T10:21:07.158Z,6.77
2022-11-28T10:22:50.376Z,6.83
2022-11-28T10:24:22.778Z,6.88
2022-11-28T10:25:46.535Z,6.83
2022-11-28T10:27:10.557Z,6.85
2022-11-28T10:28:35.563Z,6.85
2022-11-28T10:30:08.106Z,6.90
2022-11-28T10:31:45.518Z,6.88
2022-11-28T10:33:26.190Z,6.84
2022-11-28T10:34:54.374Z,6.87
2022-11-28T10:36:02.060Z,6.90
2022-11-28T10:37:32.378Z,6.93
2022-11-28T10:38:37.043Z,6.95
2022-11-28T10:39:49.002Z,6.97
2022-11-28T10:41:24.432Z,7.01
2022-11-28T10:42:42.290Z,7.00
2022-11-28T10:44:03.667Z,7.00
2022-11-28T10:45:25.128Z,7.04
2022-11-28T10:46:53.366Z,7.11
2022-11-28T10:49:00.747Z,7.16
2022-11-28T10:50:41.988Z,7.26
2022-11-28T10:52:02.395Z,7.36
2022-11-28T10:53:45.702Z,7.34
2022-11-28T10:55:31.895Z,7.37
2022-11-28T10:57:06.445Z,7.46
2022-11-28T10:59:02.810Z,7.42
2022-11-28T11:00:25.149Z,7.47
2022-11-28T11:01:49.803Z,7.50
2022-11-28T11:03:15.091Z,7.45
2022-11-28T11:04:33.677Z,7.43
2022-11-28T11:05:47.602Z,7.36
2022-11-28T11:07:31.932Z,7.34
2022-11-28T11:08:48.642Z,7.26
2022-11-28T11:10:24.744Z,7.22
2022-11-28T11:11:49.760Z,7.18
2022-11-28T11:12:54.364Z,7.18
2022-11-28T11:14:30.242Z,7.19
2022-11-28T11:15:58.109Z,7.14
2022-11-28T11:17:06.322Z,7.17
2022-11-28T11:18:40.550Z,7.17
2022-11-28T11:19:54.909Z,7.17
2022-11-28T11:21:30.633Z,7.22
2022-11-28T11:22:36.418Z,7.23
2022-11-28T11:23:48.725Z,7.25
2022-11-28T11:25:23.582Z,7.30
2022-11-28T11:26:45.963Z,7.29
2022-11-28T11:27:57.461Z,7.30
2022-11-28T11:29:06.325Z,7.36
2022-11-28T11:30:35.329Z,7.35
2022-11-28T11:31:50.626Z,7.41
2022-11-28T11:33:00.621Z,7.43
2022-11-28T11:34:18.733Z,7.40
2022-11-28T11:35:52.835Z,7.33
2022-11-28T11:37:28.332Z,7.37
2022-11-28T11:38:38.804Z,7.35
2022-11-28T11:39:53.707Z,7.32
2022-11-28T11:41:33.336Z,7.33
2022-11-28T11:42:58.833Z,7.23
2022-11-28T11:44:29.878Z,7.23
2022-11-28T11:45:35.807Z,7.19
2022-11-28T11:47:09.626Z,7.21
2022-11-28T11:48:16.706Z,7.15
2022-11-28T11:50:59.448Z,7.11
2022-11-28T11:52:17.252Z,7.09
2022-11-28T11:53:26.026Z,7.07
2022-11-28T11:54:33.457Z,7.02
2022-11-28T11:56:01.370Z,6.97
2022-11-28T11:57:32.714Z,7.02
2022-11-28T11:58:55.622Z,7.01
2022-11-28T12:00:37.461Z,7.02
2022-11-28T12:01:46.938Z,7.02
2022-11-28T12:03:49.185Z,7.03
2022-11-28T12:05:15.984Z,7.11
2022-11-28T12:06:41.929Z,7.12
2022-11-28T12:08:46.760Z,7.12
2022-11-28T12:10:01.704Z,7.12
2022-11-28T12:11:45.441Z,7.19
2022-11-28T12:12:50.900Z,7.20
2022-11-28T12:13:57.429Z,7.20
2022-11-28T12:15:01.115Z,7.14
2022-11-28T12:16:48.344Z,7.18
2022-11-28T12:18:12.949Z,7.18
2022-11-28T12:19:59.355Z,7.19
2022-11-28T12:21:22.314Z,7.18
2022-11-28T12:22:46.526Z,7.23
2022-11-28T12:24:21.242Z,7.29
2022-11-28T12:25:56.077Z,7.30
2022-11-28T12:27:24.970Z,7.33
2022-11-28T12:29:09.380Z,7.33
2022-11-28T12:30:43.455Z,7.34
2022-11-28T12:32:36.764Z,7.38
2022-11-28T12:34:05.526Z,7.41
2022-11-28T12:35:43.389Z,7.44
2022-11-28T12:37:41.982Z,7.44
2022-11-28T12:39:15.318Z,7.45
2022-11-28T12:40:42.844Z,7.42
2022-11-28T12:42:12.050Z,7.46
2022-11-28T12:43:29.187Z,7.51
2022-11-28T12:45:02.919Z,7.56
2022-11-28T12:46:18.041Z,7.57
2022-11-28T12:48:10.595Z,7.61
2022-11-28T12:49:44.580Z,7.64
2022-11-28T12:51:24.275Z,7.61
2022-11-28T12:53:07.184Z,7.59
2022-11-28T12:54:49.435Z,7.67
2022-11-28T12:56:37.126Z,7.63
2022-11-28T12:58:14.626Z,7.63
2022-11-28T12:59:53.707Z,7.69
2022-11-28T13:01:32.505Z,7.70
2022-11-28T13:02:59.752Z,7.62
2022-11-28T13:04:55.910Z,7.62
2022-11-28T13:06:24.205Z,7.63
2022-11-28T13:08:08.596Z,7.61
2022-11-28T13:09:38.022Z,7.60
2022-11-28T13:11:53.583Z,7.60
2022-11-28T13:13:40.994Z,7.64
2022-11-28T13:15:06.526Z,7.61
2022-11-28T13:16:36.010Z,7.62
2022-11-28T13:18:09.230Z,7.62
2022-11-28T13:20:06.521Z,7.61
2022-11-28T13:21:44.016Z,7.52
2022-11-28T13:23:49.450Z,7.54
2022-11-28T13:25:22.934Z,7.54
2022-11-28T13:27:09.239Z,7.54
2022-11-28T13:28:54.254Z,7.50
2022-11-28T13:30:27.427Z,7.47
2022-11-28T13:32:10.310Z,7.42
2022-11-28T13:34:03.204Z,7.43
2022-11-28T13:35:23.571Z,7.50
2022-11-28T13:38:50.282Z,7.51
2022-11-28T13:40:37.035Z,7.56
2022-11-28T13:42:44.254Z,7.53
2022-11-28T13:44:20.363Z,7.46
2022-11-28T13:47:49.658Z,7.47
2022-11-28T13:49:34.007Z,7.44
2022-11-28T13:51:11.868Z,7.41
2022-11-28T13:52:25.687Z,7.32
2022-11-28T13:54:44.272Z,7.33
2022-11-28T13:56:30.660Z,7.36
2022-11-28T13:57:49.277Z,7.38
2022-11-28T13:59:02.407Z,7.39
2022-11-28T14:00:31.807Z,7.39
2022-11-28T14:02:02.996Z,7.39
2022-11-28T14:03:29.448Z,7.38
2022-11-28T14:04:48.493Z,7.36
2022-11-28T14:06:07.277Z,7.35
2022-11-28T14:07:40.753Z,7.35
2022-11-28T14:08:59.328Z,7.33
2022-11-28T14:13:23.148Z,7.30
2022-11-28T14:15:10.233Z,7.23
2022-11-28T14:17:16.887Z,7.22
2022-11-28T14:18:58.248Z,7.22
2022-11-28T14:20:41.724Z,7.20
2022-11-28T14:22:41.840Z,7.16
2022-11-28T14:24:32.918Z,7.07
2022-11-28T14:25:55.657Z,7.06
2022-11-28T14:27:06.552Z,7.02
2022-11-28T14:28:42.781Z,7.02
2022-11-28T14:29:57.357Z,7.03
2022-11-28T14:31:55.214Z,6.99
2022-11-28T14:35:00.233Z,6.96
2022-11-28T14:36:36.787Z,6.94
2022-11-28T14:37:59.482Z,6.91
2022-11-28T14:39:34.155Z,6.86
2022-11-28T14:40:58.321Z,6.87
2022-11-28T14:42:30.544Z,6.85
2022-11-28T14:43:49.051Z,6.82
2022-11-28T14:45:51.196Z,6.80
2022-11-28T14:46:33.892Z,6.79
2022-11-28T14:47:42.861Z,6.81
2022-11-28T14:49:18.550Z,6.77
2022-11-28T14:50:22.164Z,6.71
2022-11-28T14:51:47.733Z,6.68
2022-11-28T14:53:32.350Z,6.62
2022-11-28T14:54:42.933Z,6.55
2022-11-28T14:55:46.896Z,6.53
2022-11-28T14:56:58.234Z,6.48
2022-11-28T14:58:05.385Z,6.51
2022-11-28T14:59:12.382Z,6.47
2022-11-28T15:00:31.750Z,6.46
2022-11-28T15:01:57.118Z,6.46
2022-11-28T15:03:44.543Z,6.40
2022-11-28T15:05:23.364Z,6.38
2022-11-28T15:06:39.852Z,6.30
2022-11-28T15:08:27.087Z,6.26
2022-11-28T15:10:07.455Z,6.18
2022-11-28T15:11:37.733Z,6.14
2022-11-28T15:13:21.951Z,6.13
2022-11-28T15:14:39.085Z,6.10
2022-11-28T15:15:57.059Z,6.09
2022-11-28T15:17:16.582Z,6.03
2022-11-28T15:18:31.130Z,6.04
2022-11-28T15:20:20.361Z,6.06
2022-11-28T15:21:27.138Z,6.04
2022-11-28T15:22:44.506Z,6.02
2022-11-28T15:23:57.574Z,6.01
2022-11-28T15:25:38.009Z,5.95
2022-11-28T15:26:42.203Z,5.91
2022-11-28T15:27:46.637Z,5.92
2022-11-28T15:29:29.425Z,5.86
2022-11-28T15:30:37.604Z,5.84
2022-11-28T15:31:52.040Z,5.85
2022-11-28T15:33:13.375Z,5.84
2022-11-28T15:34:45.734Z,5.85
2022-11-28T15:36:16.974Z,5.83
2022-11-28T15:37:38.450Z,5.80
2022-11-28T15:38:49.671Z,5.80
2022-11-28T15:40:08.453Z,5.79
2022-11-28T15:41:13.056Z,5.75
2022-11-28T15:43:12.947Z,5.69
2022-11-28T15:44:19.443Z,5.67
2022-11-28T15:45:43.321Z,5.66
2022-11-28T15:46:51.188Z,5.69
2022-11-28T15:47:58.693Z,5.68
2022-11-28T15:49:24.022Z,5.68
2022-11-28T15:51:04.421Z,5.65
2022-11-28T15:52:25.960Z,5.65
2022-11-28T15:53:32.222Z,5.62
2022-11-28T15:54:46.819Z,5.61
2022-11-28T15:56:16.441Z,5.57
2022-11-28T15:57:29.358Z,5.54
2022-11-28T15:58:45.774Z,5.54
2022-11-28T15:59:50.907Z,5.54
2022-11-28T16:01:21.253Z,5.53
2022-11-28T16:02:36.577Z,5.51
2022-11-28T16:04:13.574Z,5.49
2022-11-28T16:05:23.310Z,5.49
2022-11-28T16:06:38.588Z,5.46
2022-11-28T16:07:44.456Z,5.44
2022-11-28T16:08:55.696Z,5.44
2022-11-28T16:10:05.636Z,5.39
2022-11-28T16:11:11.307Z,5.38
2022-11-28T16:12:16.160Z,5.39
2022-11-28T16:13:30.722Z,5.36
2022-11-28T16:14:45.670Z,5.32
2022-11-28T16:15:56.188Z,5.34
2022-11-28T16:17:23.616Z,5.30
2022-11-28T16:18:31.626Z,5.31
2022-11-28T16:19:41.111Z,5.29
2022-11-28T16:20:53.942Z,5.28
2022-11-28T16:22:25.254Z,5.29
2022-11-28T16:23:39.723Z,5.29
2022-11-28T16:25:26.493Z,5.23
2022-11-28T16:26:33.829Z,5.21
2022-11-28T16:27:46.264Z,5.20
2022-11-28T16:29:10.026Z,5.20
2022-11-28T16:30:52.047Z,5.19
2022-11-28T16:32:28.113Z,5.19
2022-11-28T16:33:50.225Z,5.19
2022-11-28T16:35:05.359Z,5.19
2022-11-28T16:36:37.214Z,5.18
2022-11-28T16:37:45.232Z,5.18
2022-11-28T16:39:10.159Z,5.18
2022-11-28T16:40:28.062Z,5.16
2022-11-28T16:41:32.366Z,5.15
2022-11-28T16:42:39.667Z,5.15
2022-11-28T16:43:59.167Z,5.14
2022-11-28T16:45:26.720Z,5.12
2022-11-28T16:46:40.279Z,5.11
2022-11-28T16:47:52.810Z,5.08
2022-11-28T16:49:00.920Z,5.03
2022-11-28T16:50:18.406Z,5.00
2022-11-28T16:51:23.769Z,5.01
2022-11-28T16:52:46.514Z,5.01
2022-11-28T16:54:02.672Z,4.97
2022-11-28T16:55:41.685Z,4.97
2022-11-28T16:57:12.291Z,4.94
2022-11-28T16:58:27.054Z,4.92
2022-11-28T16:59:31.873Z,4.90
2022-11-28T17:00:44.962Z,4.89
2022-11-28T17:01:54.842Z,4.82
2022-11-28T17:03:04.396Z,4.80
2022-11-28T17:04:29.943Z,4.80
2022-11-28T17:05:37.458Z,4.80
2022-11-28T17:07:05.753Z,4.79
2022-11-28T17:08:12.882Z,4.80
2022-11-28T17:09:21.994Z,4.80
2022-11-28T17:10:34.795Z,4.78
2022-11-28T17:11:58.392Z,4.76
2022-11-28T17:13:05.377Z,4.73
2022-11-28T17:14:26.650Z,4.74
2022-11-28T17:15:36.416Z,4.72
2022-11-28T17:16:44.197Z,4.72
2022-11-28T17:17:55.829Z,4.70
2022-11-28T17:19:05.825Z,4.68
2022-11-28T17:20:15.305Z,4.62
2022-11-28T17:21:35.695Z,4.63
2022-11-28T17:22:51.376Z,4.60
2022-11-28T17:24:06.033Z,4.61
2022-11-28T17:25:30.407Z,4.63
2022-11-28T17:26:35.654Z,4.62
2022-11-28T17:27:40.293Z,4.59
2022-11-28T17:28:47.978Z,4.60
2022-11-28T17:30:24.568Z,4.58
2022-11-28T17:31:29.935Z,4.58
2022-11-28T17:32:43.959Z,4.59
2022-11-28T17:33:48.108Z,4.55
2022-11-28T17:36:28.531Z,4.57
2022-11-28T17:37:38.848Z,4.57
2022-11-28T17:38:49.046Z,4.54
2022-11-28T17:40:14.272Z,4.56
2022-11-28T17:41:24.465Z,4.55
2022-11-28T17:42:35.546Z,4.54
2022-11-28T17:43:42.349Z,4.54
2022-11-28T17:45:12.559Z,4.52
2022-11-28T17:46:21.563Z,4.53
2022-11-28T17:47:30.668Z,4.53
2022-11-28T17:48:42.424Z,4.54
2022-11-28T17:49:56.222Z,4.49
2022-11-28T17:51:11.078Z,4.48